createdAt,value
2018-07-01T13:34:16.803Z,29.61
2018-07-01T13:36:47.061Z,29.60
2018-07-01T13:39:17.333Z,29.55
2018-07-01T13:41:47.588Z,29.52
2018-07-01T13:44:17.973Z,29.32
2018-07-01T13:46:48.130Z,29.31
2018-07-01T13:49:18.601Z,29.16
2018-07-01T13:51:49.048Z,29.11
2018-07-01T13:54:19.380Z,28.91
2018-07-01T13:56:49.665Z,28.71
2018-07-01T13:59:20.178Z,28.91
2018-07-01T14:01:50.529Z,29.09
2018-07-01T14:04:20.813Z,29.27
2018-07-01T14:06:51.090Z,29.64
2018-07-01T14:09:21.491Z,30.02
2018-07-01T14:11:51.812Z,30.12
2018-07-01T14:14:22.307Z,30.41
2018-07-01T14:16:53.587Z,30.47
2018-07-01T14:19:23.912Z,30.54
2018-07-01T14:21:54.219Z,30.84
2018-07-01T14:24:24.587Z,30.95
2018-07-01T14:26:57.588Z,30.94
2018-07-01T14:29:27.961Z,30.43
2018-07-01T14:31:58.906Z,30.44
2018-07-01T14:34:30.779Z,30.46
2018-07-01T14:37:01.617Z,30.39
2018-07-01T14:39:32.651Z,30.23
2018-07-01T14:42:03.090Z,30.17
2018-07-01T14:44:33.419Z,30.05
2018-07-01T14:47:03.734Z,29.85
2018-07-01T14:49:34.018Z,29.81
2018-07-01T14:52:05.424Z,29.50
2018-07-01T14:54:35.742Z,29.19
2018-07-01T14:57:06.014Z,29.06
2018-07-01T14:59:36.374Z,29.01
2018-07-01T15:02:06.672Z,28.82
2018-07-01T15:04:37.084Z,28.61
2018-07-01T15:07:07.263Z,28.43
2018-07-01T15:09:37.672Z,28.37
2018-07-01T15:12:07.981Z,28.29
2018-07-01T15:14:38.230Z,28.25
2018-07-01T15:17:08.445Z,28.48
2018-07-01T15:19:38.862Z,28.51
2018-07-01T15:22:09.289Z,28.60
2018-07-01T15:24:39.589Z,28.68
2018-07-01T15:27:10.054Z,28.78
2018-07-01T15:29:40.256Z,28.76
2018-07-01T15:32:10.636Z,28.75
2018-07-01T15:34:40.985Z,28.77
2018-07-01T15:37:11.920Z,28.75
2018-07-01T15:39:42.263Z,28.58
2018-07-01T15:42:12.702Z,28.46
2018-07-01T15:44:42.989Z,28.55
2018-07-01T15:47:14.180Z,28.53
2018-07-01T15:49:45.234Z,28.61
2018-07-01T15:52:15.632Z,28.61
2018-07-01T15:54:46.621Z,28.63
2018-07-01T15:57:16.966Z,28.61
2018-07-01T15:59:47.341Z,28.74
2018-07-01T16:02:17.664Z,28.73
2018-07-01T16:04:48.027Z,28.71
2018-07-01T16:07:18.273Z,28.83
2018-07-01T16:09:48.596Z,28.93
2018-07-01T16:12:18.951Z,28.83
2018-07-01T16:14:49.290Z,28.70
2018-07-01T16:17:19.555Z,28.64
2018-07-01T16:19:49.792Z,28.60
2018-07-01T16:22:20.128Z,28.35
2018-07-01T16:24:55.747Z,28.20
2018-07-01T16:27:32.415Z,28.03
2018-07-01T16:30:05.499Z,27.92
2018-07-01T16:32:36.741Z,27.79
2018-07-01T16:35:07.732Z,27.75
2018-07-01T16:37:37.860Z,27.67
2018-07-01T16:40:08.577Z,27.57
2018-07-01T16:42:38.862Z,27.40
2018-07-01T16:45:09.339Z,27.32
2018-07-01T16:47:40.294Z,27.26
2018-07-01T16:50:10.611Z,27.26
2018-07-01T16:52:41.006Z,27.25
2018-07-01T16:55:11.278Z,27.31
2018-07-01T16:57:41.595Z,27.18
2018-07-01T17:00:11.870Z,26.92
2018-07-01T17:02:41.984Z,26.76
2018-07-01T17:05:12.345Z,26.60
2018-07-01T17:07:42.732Z,26.52
2018-07-01T17:10:13.188Z,26.44
2018-07-01T17:12:43.496Z,26.33
2018-07-01T17:15:13.812Z,26.25
2018-07-01T17:17:44.077Z,26.18
2018-07-01T17:20:14.460Z,26.03
2018-07-01T17:22:44.832Z,25.82
2018-07-01T17:25:15.104Z,25.71
2018-07-01T17:27:45.426Z,25.64
2018-07-01T17:30:15.690Z,25.61
2018-07-01T17:32:51.178Z,25.46
2018-07-01T17:35:21.496Z,25.39
2018-07-01T17:37:51.810Z,25.44
2018-07-01T17:40:22.116Z,25.32
2018-07-01T17:42:54.289Z,25.29
2018-07-01T17:45:24.532Z,25.20
2018-07-01T17:47:54.884Z,25.18
2018-07-01T17:50:25.259Z,25.19
2018-07-01T17:52:55.618Z,25.20
2018-07-01T17:55:26.097Z,25.13
2018-07-01T17:57:56.357Z,25.09
2018-07-01T18:00:26.745Z,25.08
2018-07-01T18:02:57.225Z,25.04
2018-07-01T18:05:27.624Z,25.07
2018-07-01T18:07:57.975Z,25.00
2018-07-01T18:10:28.909Z,24.94
2018-07-01T18:12:59.315Z,24.94
2018-07-01T18:15:29.766Z,24.93
2018-07-01T18:18:00.247Z,24.83
2018-07-01T18:20:30.801Z,24.74
2018-07-01T18:23:27.405Z,24.73
2018-07-01T18:25:31.613Z,24.73
2018-07-01T18:28:15.021Z,24.72
2018-07-01T18:30:32.175Z,24.72
2018-07-01T18:33:02.526Z,24.73
2018-07-01T18:35:32.976Z,24.69
2018-07-01T18:38:03.252Z,24.61
2018-07-01T18:40:33.708Z,24.55
2018-07-01T18:43:04.033Z,24.51
2018-07-01T18:45:34.376Z,24.44
2018-07-01T18:48:05.004Z,24.47
2018-07-01T18:50:35.481Z,24.62
2018-07-01T18:53:05.838Z,24.64
2018-07-01T18:55:36.244Z,24.59
2018-07-01T18:58:06.716Z,24.55
2018-07-01T19:00:36.974Z,24.51
2018-07-01T19:03:07.322Z,24.41
2018-07-01T19:05:37.526Z,24.41
2018-07-01T19:08:08.080Z,24.34
2018-07-01T19:10:38.421Z,24.20
2018-07-01T19:13:08.553Z,24.14
2018-07-01T19:15:38.827Z,24.04
2018-07-01T19:18:09.185Z,23.96
2018-07-01T19:20:39.618Z,23.22
2018-07-01T19:23:09.820Z,23.67
2018-07-01T19:25:40.061Z,23.60
2018-07-01T19:28:10.369Z,23.52
2018-07-01T19:30:40.893Z,23.63
2018-07-01T19:33:11.266Z,23.57
2018-07-01T19:35:41.620Z,23.57
2018-07-01T19:38:11.926Z,23.53
2018-07-01T19:40:42.358Z,23.65
2018-07-01T19:43:13.828Z,23.57
2018-07-01T19:45:44.290Z,23.55
2018-07-01T19:48:14.840Z,23.45
2018-07-01T19:50:45.405Z,23.34
2018-07-01T19:53:15.748Z,23.25
2018-07-01T19:55:46.122Z,23.21
2018-07-01T19:58:16.884Z,23.18
2018-07-01T20:00:47.239Z,23.05
2018-07-01T20:03:17.533Z,23.03
2018-07-01T20:05:47.880Z,22.78
2018-07-01T20:08:18.276Z,22.66
2018-07-01T20:10:48.604Z,22.56
2018-07-01T20:13:19.050Z,22.58
2018-07-01T20:15:49.454Z,22.46
2018-07-01T20:18:19.757Z,22.62
2018-07-01T20:20:50.097Z,22.64
2018-07-01T20:23:20.422Z,22.49
2018-07-01T20:25:50.640Z,22.47
2018-07-01T20:28:20.908Z,22.46
2018-07-01T20:30:51.293Z,22.40
2018-07-01T20:33:21.845Z,22.47
2018-07-01T20:35:53.157Z,22.48
2018-07-01T20:38:23.444Z,22.45
2018-07-01T20:40:53.916Z,22.46
2018-07-01T20:43:24.634Z,22.44
2018-07-01T20:45:55.070Z,22.43
2018-07-01T20:48:26.063Z,22.40
2018-07-01T20:50:56.339Z,22.42
2018-07-01T20:53:26.698Z,22.36
2018-07-01T20:55:57.295Z,22.21
2018-07-01T20:58:28.297Z,22.18
2018-07-01T21:01:00.376Z,22.07
2018-07-01T21:03:30.567Z,22.01
2018-07-01T21:06:01.161Z,21.97
2018-07-01T21:08:35.372Z,21.89
2018-07-01T21:11:06.242Z,21.78
2018-07-01T21:13:36.636Z,21.69
2018-07-01T21:16:07.537Z,21.75
2018-07-01T21:18:37.850Z,21.68
2018-07-01T21:21:08.437Z,21.75
2018-07-01T21:23:40.719Z,21.70
2018-07-01T21:26:11.275Z,21.77
2018-07-01T21:28:43.717Z,21.67
2018-07-01T21:31:14.622Z,21.55
2018-07-01T21:33:45.247Z,21.56
2018-07-01T21:36:15.547Z,21.55
2018-07-01T21:38:45.980Z,21.45
2018-07-01T21:41:16.370Z,21.35
2018-07-01T21:43:47.427Z,21.33
2018-07-01T21:46:17.800Z,21.36
2018-07-01T21:48:48.209Z,21.29
2018-07-01T21:51:18.659Z,21.26
2018-07-01T21:53:49.063Z,21.28
2018-07-01T21:56:19.349Z,21.26
2018-07-01T21:58:49.722Z,21.22
2018-07-01T22:01:20.258Z,21.12
2018-07-01T22:03:50.668Z,21.08
2018-07-01T22:06:21.086Z,21.08
2018-07-01T22:08:51.520Z,21.06
2018-07-01T22:11:47.809Z,20.99
2018-07-01T22:14:26.485Z,20.96
2018-07-01T22:16:57.063Z,20.95
2018-07-01T22:19:27.370Z,20.97
2018-07-01T22:21:58.222Z,20.83
2018-07-01T22:24:30.542Z,20.84
2018-07-01T22:27:00.952Z,20.82
2018-07-01T22:29:31.597Z,20.79
2018-07-01T22:32:02.541Z,20.79
2018-07-01T22:34:32.956Z,20.80
2018-07-01T22:37:03.395Z,20.75
2018-07-01T22:39:33.583Z,20.69
2018-07-01T22:42:04.212Z,20.76
2018-07-01T22:44:34.482Z,20.71
2018-07-01T22:47:05.466Z,20.73
2018-07-01T22:49:35.809Z,20.68
2018-07-01T22:52:06.338Z,20.73
2018-07-01T22:54:36.551Z,20.67
2018-07-01T22:57:07.312Z,20.61
2018-07-01T22:59:37.619Z,20.75
2018-07-01T23:03:17.025Z,20.61
2018-07-01T23:05:47.075Z,20.46
2018-07-01T23:08:17.837Z,20.41
2018-07-01T23:10:48.269Z,20.40
2018-07-01T23:13:18.690Z,20.38
2018-07-01T23:15:49.046Z,20.34
2018-07-01T23:18:19.409Z,20.34
2018-07-01T23:20:49.841Z,20.37
2018-07-01T23:23:20.169Z,20.33
2018-07-01T23:25:50.409Z,20.23
2018-07-01T23:28:21.106Z,20.20
2018-07-01T23:30:51.517Z,20.17
2018-07-01T23:33:22.108Z,20.21
2018-07-01T23:35:52.384Z,20.17
2018-07-01T23:38:22.758Z,20.08
2018-07-01T23:40:53.058Z,20.05
2018-07-01T23:43:23.537Z,20.03
2018-07-01T23:45:53.878Z,20.00
2018-07-01T23:48:25.147Z,19.98
2018-07-01T23:50:55.668Z,19.88
2018-07-01T23:53:26.664Z,19.83
2018-07-01T23:55:58.095Z,19.89
2018-07-01T23:58:29.103Z,19.94
